Time;durP1;ratioP1;P1;durP2;ratioP2;P2;SDS_P1;SDS_P2;PMS_P1;PMS_P2;Temp;Humidity;BMP_temperature;BMP_pressure;BME280_temperature;BME280_humidity;BME280_pressure;Samples;Min_cycle;Max_cycle;Signal;HPM_P1;HPM_P2
2023/06/15 00:01:13;;;;;;;53.22;50.92;;;;;;;-141.02;100.00;107971.50;5150267;27;20274;-66
2023/06/15 00:03:43;;;;;;;50.40;48.25;;;;;;;-141.02;100.00;107971.50;5149895;27;20192;-62
2023/06/15 00:06:10;;;;;;;44.92;43.03;;;;;;;-141.02;100.00;107971.50;5149689;27;20191;-61
2023/06/15 00:08:37;;;;;;;45.10;43.20;;;;;;;-141.02;100.00;107971.50;5141034;27;20692;-61
2023/06/15 00:11:04;;;;;;;42.92;41.13;;;;;;;-141.02;100.00;107971.50;5135995;27;20678;-61
2023/06/15 00:13:31;;;;;;;42.80;41.00;;;;;;;-141.02;100.00;107971.50;5135901;27;20786;-61
2023/06/15 00:15:58;;;;;;;41.55;39.80;;;;;;;-141.02;100.00;107971.50;5136042;27;20222;-64
2023/06/15 00:18:37;;;;;;;33.20;31.88;;;;;;;-141.02;100.00;107971.50;5135753;27;20224;-61
2023/06/15 00:21:08;;;;;;;36.35;34.88;;;;;;;-141.02;100.00;107971.50;5135766;27;20195;-60
2023/06/15 00:23:35;;;;;;;40.38;38.70;;;;;;;-141.02;100.00;107971.50;5136284;27;20192;-60
2023/06/15 00:26:02;;;;;;;46.53;44.55;;;;;;;-141.02;100.00;107971.50;5135980;27;20605;-68
2023/06/15 00:28:29;;;;;;;48.95;46.85;;;;;;;-141.02;100.00;107971.50;5135597;27;20242;-60
2023/06/15 00:30:56;;;;;;;47.72;45.67;;;;;;;-141.02;100.00;107971.50;5135891;27;20196;-60
2023/06/15 00:33:23;;;;;;;46.92;44.92;;;;;;;-141.02;100.00;107971.50;5135549;27;20283;-60
2023/06/15 00:35:50;;;;;;;37.88;36.33;;;;;;;-141.02;100.00;107971.50;5135841;27;20249;-60
2023/06/15 00:38:19;;;;;;;39.60;37.95;;;;;;;-141.02;100.00;107971.50;5135677;27;20255;-61
2023/06/15 00:40:46;;;;;;;39.95;38.28;;;;;;;-141.02;100.00;107971.50;5135365;27;20196;-60
2023/06/15 00:43:48;;;;;;;37.92;36.35;;;;;;;-141.02;100.00;107971.50;5135338;27;20669;-59
2023/06/15 00:47:02;;;;;;;28.48;27.38;;;;;;;-141.02;100.00;107971.50;5135545;27;20240;-61
2023/06/15 00:49:59;;;;;;;31.48;30.23;;;;;;;-141.02;100.00;107971.50;5135250;27;20188;-60
2023/06/15 00:52:26;;;;;;;25.90;24.92;;;;;;;-141.02;100.00;107971.50;5135600;27;20192;-60
2023/06/15 00:54:55;;;;;;;32.65;31.35;;;;;;;-141.02;100.00;107971.50;5135417;27;20253;-60
2023/06/15 00:57:28;;;;;;;33.63;32.25;;;;;;;-141.02;100.00;107971.50;5135293;27;20228;-59
2023/06/15 00:59:55;;;;;;;33.88;32.50;;;;;;;-141.02;100.00;107971.50;5135004;27;20196;-59
2023/06/15 01:02:24;;;;;;;33.25;31.90;;;;;;;-141.02;100.00;107971.50;5135272;27;20196;-62
2023/06/15 01:08:05;;;;;;;32.50;31.17;;;;;;;-141.02;100.00;107971.50;5134325;27;20232;-60
2023/06/15 01:11:25;;;;;;;33.03;31.67;;;;;;;-141.02;100.00;107971.50;5135106;27;20202;-60
2023/06/15 01:13:54;;;;;;;30.05;28.85;;;;;;;-141.02;100.00;107971.50;5134801;27;20195;-62
2023/06/15 01:16:24;;;;;;;25.35;24.38;;;;;;;-141.02;100.00;107971.50;5134934;27;20196;-60
2023/06/15 01:18:57;;;;;;;23.70;22.80;;;;;;;-141.02;100.00;107971.50;5134869;27;20193;-59
2023/06/15 01:21:27;;;;;;;24.48;23.58;;;;;;;-141.02;100.00;107971.50;5134109;27;20275;-60
2023/06/15 01:28:03;;;;;;;22.58;21.77;;;;;;;-141.02;100.00;107971.50;5112112;28;20334;-59
2023/06/15 01:30:38;;;;;;;19.77;19.08;;;;;;;-141.02;100.00;107971.50;5111724;28;20254;-60
2023/06/15 01:33:05;;;;;;;23.75;22.85;;;;;;;-141.02;100.00;107971.50;5112018;28;20262;-59
2023/06/15 01:36:03;;;;;;;24.75;23.85;;;;;;;-141.02;100.00;107971.50;5111863;28;20694;-60
2023/06/15 01:38:31;;;;;;;28.30;27.20;;;;;;;-141.02;100.00;107971.50;5111695;28;20694;-70
2023/06/15 01:41:38;;;;;;;28.85;27.75;;;;;;;-141.02;100.00;107971.50;5111796;28;20280;-59
2023/06/15 01:44:31;;;;;;;29.35;28.23;;;;;;;-141.02;100.00;107971.50;5115188;27;20192;-59
2023/06/15 01:47:33;;;;;;;31.23;30.00;;;;;;;-141.02;100.00;107971.50;5134275;27;20196;-64
2023/06/15 01:50:44;;;;;;;38.97;37.38;;;;;;;-141.02;100.00;107971.50;5133945;27;20668;-60
2023/06/15 01:53:11;;;;;;;36.95;35.45;;;;;;;-141.02;100.00;107971.50;5134223;27;20223;-60
2023/06/15 01:55:38;;;;;;;42.25;40.50;;;;;;;-141.02;100.00;107971.50;5134190;27;20227;-61
2023/06/15 01:58:06;;;;;;;53.55;51.25;;;;;;;-141.02;100.00;107971.50;5133924;27;20224;-60
2023/06/15 02:00:34;;;;;;;53.78;51.45;;;;;;;-141.02;100.00;107971.50;5134097;27;20195;-61
2023/06/15 02:03:03;;;;;;;63.40;60.67;;;;;;;-141.02;100.00;107971.50;5134060;27;20200;-60
2023/06/15 02:05:30;;;;;;;73.90;70.70;;;;;;;-141.02;100.00;107971.50;5133667;27;20637;-62
2023/06/15 02:07:57;;;;;;;83.05;79.50;;;;;;;-141.02;100.00;107971.50;5133416;27;20717;-60
2023/06/15 02:10:24;;;;;;;90.53;86.68;;;;;;;-141.02;100.00;107971.50;5133539;27;20229;-60
2023/06/15 02:16:13;;;;;;;91.20;87.28;;;;;;;-141.02;100.00;107971.50;5133636;27;20232;-60
2023/06/15 02:18:45;;;;;;;93.35;89.35;;;;;;;-141.02;100.00;107971.50;5134062;27;20644;-60
2023/06/15 02:25:11;;;;;;;69.53;66.50;;;;;;;-141.02;100.00;107971.50;5133520;27;20661;-62
2023/06/15 02:27:38;;;;;;;64.90;62.05;;;;;;;-141.02;100.00;107971.50;5133300;27;20287;-61
2023/06/15 02:30:46;;;;;;;79.55;76.10;;;;;;;-141.02;100.00;107971.50;5133617;27;20196;-61
2023/06/15 02:33:15;;;;;;;71.22;68.10;;;;;;;-141.02;100.00;107971.50;5133627;27;20253;-60
2023/06/15 02:35:43;;;;;;;54.17;51.78;;;;;;;-141.02;100.00;107971.50;5133433;27;20245;-67
2023/06/15 02:38:30;;;;;;;45.85;43.90;;;;;;;-141.02;100.00;107971.50;5133444;27;20224;-67
2023/06/15 02:41:50;;;;;;;39.92;38.28;;;;;;;-141.02;100.00;107971.50;5133073;27;20653;-60
2023/06/15 02:44:21;;;;;;;39.17;37.55;;;;;;;-141.02;100.00;107971.50;5133488;27;20211;-60
2023/06/15 02:46:55;;;;;;;40.00;38.35;;;;;;;-141.02;100.00;107971.50;5132978;27;20193;-61
2023/06/15 02:49:23;;;;;;;43.33;41.53;;;;;;;-141.02;100.00;107971.50;5133412;27;20643;-60
2023/06/15 02:51:51;;;;;;;44.67;42.83;;;;;;;-141.02;100.00;107971.50;5133330;27;20654;-60
2023/06/15 02:54:18;;;;;;;50.65;48.50;;;;;;;-141.02;100.00;107971.50;5133010;27;20241;-60
2023/06/15 02:57:15;;;;;;;63.05;60.35;;;;;;;-141.02;100.00;107971.50;5132892;28;20230;-60
2023/06/15 03:00:17;;;;;;;77.18;73.88;;;;;;;-141.02;100.00;107971.50;5133063;27;20200;-71
2023/06/15 03:02:45;;;;;;;77.43;74.13;;;;;;;-141.02;100.00;107971.50;5133289;27;20328;-60
2023/06/15 03:05:51;;;;;;;85.90;82.25;;;;;;;-141.02;100.00;107971.50;5132841;28;20189;-59
2023/06/15 03:12:34;;;;;;;72.78;69.65;;;;;;;-141.02;100.00;107971.50;5132944;28;20248;-60
2023/06/15 03:15:01;;;;;;;83.47;79.93;;;;;;;-141.02;100.00;107971.50;5132894;27;20279;-61
2023/06/15 03:17:32;;;;;;;80.25;76.82;;;;;;;-141.02;100.00;107971.50;5132972;27;20284;-59
2023/06/15 03:20:00;;;;;;;94.82;90.80;;;;;;;-141.02;100.00;107971.50;5133136;28;20184;-59
2023/06/15 03:22:27;;;;;;;98.75;94.60;;;;;;;-141.02;100.00;107971.50;5132649;28;20199;-68
2023/06/15 03:24:55;;;;;;;87.45;83.72;;;;;;;-141.02;100.00;107971.50;5132819;27;20188;-59
2023/06/15 03:27:22;;;;;;;97.82;93.68;;;;;;;-141.02;100.00;107971.50;5132693;28;20666;-59
2023/06/15 03:29:51;;;;;;;88.68;84.93;;;;;;;-141.02;100.00;107971.50;5133014;28;20670;-60
2023/06/15 03:32:18;;;;;;;87.95;84.20;;;;;;;-141.02;100.00;107971.50;5132959;27;20188;-59
2023/06/15 03:34:45;;;;;;;92.15;88.25;;;;;;;-141.02;100.00;107971.50;5132566;28;20201;-59
2023/06/15 03:37:12;;;;;;;78.30;74.95;;;;;;;-141.02;100.00;107971.50;5132549;28;20196;-59
2023/06/15 03:39:39;;;;;;;62.53;59.83;;;;;;;-141.02;100.00;107971.50;5132775;28;20245;-59
2023/06/15 03:42:06;;;;;;;52.25;50.03;;;;;;;-141.02;100.00;107971.50;5132876;27;20271;-68
2023/06/15 03:44:33;;;;;;;39.13;37.53;;;;;;;-141.02;100.00;107971.50;5135782;27;20189;-61
2023/06/15 03:47:02;;;;;;;32.25;31.00;;;;;;;-141.02;100.00;107971.50;5136485;27;20250;-59
2023/06/15 03:49:29;;;;;;;35.58;34.15;;;;;;;-141.02;100.00;107971.50;5136706;27;20243;-59
2023/06/15 03:51:56;;;;;;;34.45;33.10;;;;;;;-141.02;100.00;107971.50;5136530;27;20227;-58
2023/06/15 03:54:23;;;;;;;35.30;33.90;;;;;;;-141.02;100.00;107971.50;5136322;27;20249;-68
2023/06/15 03:56:50;;;;;;;35.92;34.50;;;;;;;-141.02;100.00;107971.50;5136492;27;20199;-59
2023/06/15 03:59:17;;;;;;;39.03;37.45;;;;;;;-141.02;100.00;107971.50;5136070;27;20687;-59
2023/06/15 04:01:44;;;;;;;43.95;42.13;;;;;;;-141.02;100.00;107971.50;5136444;27;20225;-58
2023/06/15 04:04:14;;;;;;;42.08;40.35;;;;;;;-141.02;100.00;107971.50;5136009;27;20201;-58
2023/06/15 04:06:46;;;;;;;36.67;35.22;;;;;;;-141.02;100.00;107971.50;5136090;27;20696;-59
2023/06/15 04:09:14;;;;;;;37.33;35.85;;;;;;;-141.02;100.00;107971.50;5135861;27;20220;-58
2023/06/15 04:11:41;;;;;;;32.17;30.92;;;;;;;-141.02;100.00;107971.50;5135942;27;20284;-70
2023/06/15 04:14:08;;;;;;;26.77;25.80;;;;;;;-141.02;100.00;107971.50;5136197;27;20192;-58
2023/06/15 04:16:36;;;;;;;24.20;23.35;;;;;;;-141.02;100.00;107971.50;5136263;27;20730;-58
2023/06/15 04:19:03;;;;;;;21.48;20.77;;;;;;;-141.02;100.00;107971.50;5135808;27;20273;-58
2023/06/15 04:21:31;;;;;;;18.02;17.45;;;;;;;-141.02;100.00;107971.50;5136046;27;20201;-58
2023/06/15 04:23:58;;;;;;;18.20;17.60;;;;;;;-141.02;100.00;107971.50;5135698;27;20279;-58
2023/06/15 04:26:26;;;;;;;15.68;15.20;;;;;;;-141.02;100.00;107971.50;5135913;27;20619;-59
2023/06/15 04:28:53;;;;;;;15.38;14.90;;;;;;;-141.02;100.00;107971.50;5135950;27;20200;-71
2023/06/15 04:31:21;;;;;;;13.68;13.27;;;;;;;-141.02;100.00;107971.50;5135909;27;20220;-58
2023/06/15 04:33:48;;;;;;;12.57;12.25;;;;;;;-141.02;100.00;107971.50;5135555;27;20196;-59
2023/06/15 04:36:16;;;;;;;12.38;12.07;;;;;;;-141.02;100.00;107971.50;5135508;27;20193;-59
2023/06/15 04:38:46;;;;;;;11.32;11.02;;;;;;;-141.02;100.00;107971.50;5135600;27;20598;-58
2023/06/15 04:41:14;;;;;;;11.07;10.77;;;;;;;-141.02;100.00;107971.50;5135692;27;20200;-58
2023/06/15 04:43:41;;;;;;;10.35;10.05;;;;;;;-141.02;100.00;107971.50;5135614;27;20205;-58
2023/06/15 04:46:08;;;;;;;8.88;8.68;;;;;;;-141.02;100.00;107971.50;5135611;27;20279;-58
2023/06/15 04:48:35;;;;;;;9.45;9.25;;;;;;;-141.02;100.00;107971.50;5135278;27;20278;-67
2023/06/15 04:51:02;;;;;;;9.60;9.38;;;;;;;-141.02;100.00;107971.50;5135115;27;20188;-64
2023/06/15 04:53:29;;;;;;;9.93;9.63;;;;;;;-141.02;100.00;107971.50;5135483;27;20241;-58
2023/06/15 04:55:58;;;;;;;9.60;9.35;;;;;;;-141.02;100.00;107971.50;5134906;27;20200;-58
2023/06/15 04:58:25;;;;;;;9.60;9.32;;;;;;;-141.02;100.00;107971.50;5134996;27;20636;-58
2023/06/15 05:00:52;;;;;;;9.32;9.13;;;;;;;-141.02;100.00;107971.50;5135011;27;20287;-58
2023/06/15 05:03:19;;;;;;;8.30;8.10;;;;;;;-141.02;100.00;107971.50;5134936;27;20227;-58
2023/06/15 05:05:46;;;;;;;8.70;8.50;;;;;;;-141.02;100.00;107971.50;5135215;27;20197;-58
2023/06/15 05:08:13;;;;;;;7.78;7.57;;;;;;;-141.02;100.00;107971.50;5134895;27;20224;-58
2023/06/15 05:10:40;;;;;;;7.40;7.20;;;;;;;-141.02;100.00;107971.50;5134859;27;20603;-58
2023/06/15 05:13:09;;;;;;;6.57;6.40;;;;;;;-141.02;100.00;107971.50;5135066;27;20252;-57
2023/06/15 05:15:36;;;;;;;6.10;6.00;;;;;;;-141.02;100.00;107971.50;5135055;27;20201;-58
2023/06/15 05:18:03;;;;;;;6.70;6.50;;;;;;;-141.02;100.00;107971.50;5134956;27;20224;-60
2023/06/15 05:20:30;;;;;;;5.57;5.47;;;;;;;-141.02;100.00;107971.50;5134898;27;20192;-58
2023/06/15 05:22:57;;;;;;;5.60;5.50;;;;;;;-141.02;100.00;107971.50;5134832;27;20231;-58
2023/06/15 05:25:24;;;;;;;5.47;5.38;;;;;;;-141.02;100.00;107971.50;5134416;27;20722;-64
2023/06/15 05:27:51;;;;;;;5.72;5.63;;;;;;;-141.02;100.00;107971.50;5134526;27;20654;-58
2023/06/15 05:30:20;;;;;;;5.38;5.28;;;;;;;-141.02;100.00;107971.50;5134834;27;20201;-58
2023/06/15 05:32:47;;;;;;;5.65;5.55;;;;;;;-141.02;100.00;107971.50;5134403;27;20200;-58
2023/06/15 05:35:14;;;;;;;6.80;6.60;;;;;;;-141.02;100.00;107971.50;5134623;27;20218;-64
2023/06/15 05:37:41;;;;;;;7.28;7.07;;;;;;;-141.02;100.00;107971.50;5134154;27;20197;-60
2023/06/15 05:40:08;;;;;;;7.50;7.30;;;;;;;-141.02;100.00;107971.50;5134236;27;20288;-57
2023/06/15 05:42:36;;;;;;;15.98;14.93;;;;;;;-141.02;100.00;107971.50;5134518;27;20275;-57
2023/06/15 05:45:03;;;;;;;8.60;8.40;;;;;;;-141.02;100.00;107971.50;5134526;27;20618;-58
2023/06/15 05:47:32;;;;;;;8.27;8.07;;;;;;;-141.02;100.00;107971.50;5134375;27;20248;-58
2023/06/15 05:50:00;;;;;;;10.95;10.65;;;;;;;-141.02;100.00;107971.50;5133999;27;20204;-57
2023/06/15 05:52:27;;;;;;;10.50;10.20;;;;;;;-141.02;100.00;107971.50;5134321;27;20211;-57
2023/06/15 05:54:53;;;;;;;12.30;11.90;;;;;;;-141.02;100.00;107971.50;5133876;27;20200;-58
2023/06/15 05:57:20;;;;;;;12.90;12.50;;;;;;;-141.02;100.00;107971.50;5133837;27;20230;-66
2023/06/15 05:59:47;;;;;;;13.52;13.02;;;;;;;-141.02;100.00;107971.50;5133725;27;20267;-66
2023/06/15 06:02:15;;;;;;;13.20;12.70;;;;;;;-141.02;100.00;107971.50;5133793;27;20193;-58
2023/06/15 06:04:43;;;;;;;13.82;13.32;;;;;;;-141.02;100.00;107971.50;5133834;27;20192;-65
2023/06/15 06:07:10;;;;;;;15.27;14.57;;;;;;;-141.02;100.00;107971.50;5133963;27;20196;-58
2023/06/15 06:09:38;;;;;;;16.48;15.75;;;;;;;-141.02;100.00;107971.50;5133522;27;20235;-58
2023/06/15 06:12:06;;;;;;;18.05;17.25;;;;;;;-141.02;100.00;107971.50;5133568;27;20212;-58
2023/06/15 06:14:33;;;;;;;18.42;17.52;;;;;;;-141.02;100.00;107971.50;5133838;27;20277;-66
2023/06/15 06:17:00;;;;;;;19.77;18.75;;;;;;;-141.02;100.00;107971.50;5133827;27;20656;-58
2023/06/15 06:19:27;;;;;;;19.73;18.73;;;;;;;-141.02;100.00;107971.50;5133379;27;20774;-57
2023/06/15 06:21:56;;;;;;;21.75;20.65;;;;;;;-141.02;100.00;107971.50;5133730;27;20221;-57
2023/06/15 06:24:23;;;;;;;22.20;21.00;;;;;;;-141.02;100.00;107971.50;5133348;27;20565;-58
2023/06/15 06:26:50;;;;;;;24.15;22.75;;;;;;;-141.02;100.00;107971.50;5133710;27;20249;-58
2023/06/15 06:29:17;;;;;;;24.50;23.10;;;;;;;-141.02;100.00;107971.50;5133371;27;20649;-60
2023/06/15 06:31:44;;;;;;;20.33;19.27;;;;;;;-141.02;100.00;107971.50;5133308;27;20238;-57
2023/06/15 06:34:11;;;;;;;21.10;19.90;;;;;;;-141.02;100.00;107971.50;5133612;27;20260;-58
2023/06/15 06:36:38;;;;;;;20.98;19.88;;;;;;;-141.02;100.00;107971.50;5133481;27;20200;-58
2023/06/15 06:39:07;;;;;;;18.50;17.60;;;;;;;-141.02;100.00;107971.50;5133492;27;20288;-58
2023/06/15 06:41:34;;;;;;;17.85;17.05;;;;;;;-141.02;100.00;107971.50;5133474;27;20193;-57
2023/06/15 06:44:01;;;;;;;17.05;16.35;;;;;;;-141.02;100.00;107971.50;5133112;27;20239;-58
2023/06/15 06:46:28;;;;;;;16.38;15.68;;;;;;;-141.02;100.00;107971.50;5133383;27;20200;-58
2023/06/15 06:48:55;;;;;;;14.90;14.30;;;;;;;-141.02;100.00;107971.50;5133388;27;20351;-62
2023/06/15 06:51:22;;;;;;;15.77;15.07;;;;;;;-141.02;100.00;107971.50;5133367;27;20203;-59
2023/06/15 06:53:49;;;;;;;16.17;15.48;;;;;;;-141.02;100.00;107971.50;5132970;27;20241;-58
2023/06/15 06:56:17;;;;;;;17.10;16.30;;;;;;;-141.02;100.00;107971.50;5133048;27;20192;-59
2023/06/15 06:58:44;;;;;;;16.10;15.40;;;;;;;-141.02;100.00;107971.50;5133029;28;20315;-58
2023/06/15 07:01:11;;;;;;;16.55;15.80;;;;;;;-141.02;100.00;107971.50;5133212;28;20200;-58
2023/06/15 07:03:39;;;;;;;17.48;16.58;;;;;;;-141.02;100.00;107971.50;5133236;28;20188;-58
2023/06/15 07:06:06;;;;;;;17.67;16.77;;;;;;;-141.02;100.00;107971.50;5133160;28;20635;-57
2023/06/15 07:08:33;;;;;;;16.90;16.10;;;;;;;-141.02;100.00;107971.50;5132656;28;20255;-65
2023/06/15 07:11:00;;;;;;;16.75;15.95;;;;;;;-141.02;100.00;107971.50;5132846;28;20287;-57
2023/06/15 07:13:28;;;;;;;16.50;15.70;;;;;;;-141.02;100.00;107971.50;5132867;28;20569;-58
2023/06/15 07:15:57;;;;;;;16.30;15.50;;;;;;;-141.02;100.00;107971.50;5132866;28;20228;-57
2023/06/15 07:18:25;;;;;;;15.73;15.02;;;;;;;-141.02;100.00;107971.50;5134423;27;20230;-58
2023/06/15 07:20:54;;;;;;;14.90;14.30;;;;;;;-141.02;100.00;107971.50;5137015;27;20225;-57
2023/06/15 07:23:22;;;;;;;15.00;14.35;;;;;;;-141.02;100.00;107971.50;5137142;27;20196;-68
2023/06/15 07:25:49;;;;;;;15.80;15.10;;;;;;;-141.02;100.00;107971.50;5137162;27;20192;-60
2023/06/15 07:28:16;;;;;;;16.52;15.73;;;;;;;-141.02;100.00;107971.50;5136865;27;20228;-66
2023/06/15 07:30:46;;;;;;;15.75;14.98;;;;;;;-141.02;100.00;107971.50;5136652;27;20197;-57
2023/06/15 07:33:13;;;;;;;15.93;15.13;;;;;;;-141.02;100.00;107971.50;5137113;27;20622;-57
2023/06/15 07:35:40;;;;;;;16.58;15.68;;;;;;;-141.02;100.00;107971.50;5136638;27;20727;-58
2023/06/15 07:38:07;;;;;;;17.40;16.40;;;;;;;-141.02;100.00;107971.50;5136712;27;20219;-58
2023/06/15 07:40:34;;;;;;;18.00;17.00;;;;;;;-141.02;100.00;107971.50;5136369;27;20769;-60
2023/06/15 07:43:01;;;;;;;17.70;16.70;;;;;;;-141.02;100.00;107971.50;5136549;27;20188;-58
2023/06/15 07:45:28;;;;;;;17.27;16.38;;;;;;;-141.02;100.00;107971.50;5136451;27;20268;-58
2023/06/15 07:47:57;;;;;;;17.00;16.10;;;;;;;-141.02;100.00;107971.50;5136701;27;20279;-58
2023/06/15 07:50:26;;;;;;;16.95;15.95;;;;;;;-141.02;100.00;107971.50;5136690;27;20208;-57
2023/06/15 07:52:53;;;;;;;17.33;16.33;;;;;;;-141.02;100.00;107971.50;5136235;27;20188;-58
2023/06/15 07:55:20;;;;;;;15.60;14.70;;;;;;;-141.02;100.00;107971.50;5136636;27;20271;-58
2023/06/15 07:57:47;;;;;;;15.20;14.40;;;;;;;-141.02;100.00;107971.50;5136276;27;20239;-57
2023/06/15 08:00:15;;;;;;;14.60;13.90;;;;;;;-141.02;100.00;107971.50;5136373;27;20224;-59
2023/06/15 08:02:42;;;;;;;15.20;14.50;;;;;;;-141.02;100.00;107971.50;5136128;27;20252;-58
2023/06/15 08:05:10;;;;;;;14.50;13.80;;;;;;;-141.02;100.00;107971.50;5136330;27;20308;-58
2023/06/15 08:07:37;;;;;;;15.00;14.30;;;;;;;-141.02;100.00;107971.50;5136191;27;20638;-57
2023/06/15 08:10:05;;;;;;;16.02;15.20;;;;;;;-141.02;100.00;107971.50;5136075;27;20210;-58
2023/06/15 08:12:32;;;;;;;15.70;14.80;;;;;;;-141.02;100.00;107971.50;5136243;27;20189;-57
2023/06/15 08:14:59;;;;;;;16.17;15.18;;;;;;;-141.02;100.00;107971.50;5136206;27;20193;-58
2023/06/15 08:17:26;;;;;;;16.40;15.50;;;;;;;-141.02;100.00;107971.50;5135825;27;20193;-60
2023/06/15 08:19:53;;;;;;;16.20;15.30;;;;;;;-141.02;100.00;107971.50;5135699;27;20775;-60
2023/06/15 08:22:22;;;;;;;16.23;15.32;;;;;;;-141.02;100.00;107971.50;5135731;27;20641;-64
2023/06/15 08:24:49;;;;;;;15.82;14.95;;;;;;;-141.02;100.00;107971.50;5135986;27;20253;-58
2023/06/15 08:27:16;;;;;;;15.35;14.55;;;;;;;-141.02;100.00;107971.50;5135722;27;20200;-58
2023/06/15 08:29:44;;;;;;;15.45;14.75;;;;;;;-141.02;100.00;107971.50;5134973;27;20242;-57
2023/06/15 08:32:13;;;;;;;15.30;14.60;;;;;;;-141.02;100.00;107971.50;5135728;27;20246;-57
2023/06/15 08:34:42;;;;;;;20.85;19.45;;;;;;;-141.02;100.00;107971.50;5135449;27;20717;-60
2023/06/15 08:37:11;;;;;;;14.57;13.98;;;;;;;-141.02;100.00;107971.50;5135653;27;20385;-58
2023/06/15 08:39:39;;;;;;;14.30;13.70;;;;;;;-141.02;100.00;107971.50;5135507;27;20243;-59
2023/06/15 08:42:08;;;;;;;13.75;13.25;;;;;;;-141.02;100.00;107971.50;5135775;27;20257;-65
2023/06/15 08:44:35;;;;;;;12.38;11.98;;;;;;;-141.02;100.00;107971.50;5135598;27;20225;-58
2023/06/15 08:47:03;;;;;;;12.95;12.45;;;;;;;-141.02;100.00;107971.50;5135320;27;20277;-58
2023/06/15 08:49:31;;;;;;;14.00;13.40;;;;;;;-141.02;100.00;107971.50;5135607;27;20280;-60
2023/06/15 08:51:59;;;;;;;12.80;12.40;;;;;;;-141.02;100.00;107971.50;5135109;27;20712;-63
2023/06/15 08:54:30;;;;;;;12.52;12.13;;;;;;;-141.02;100.00;107971.50;5135051;27;20569;-58
2023/06/15 08:56:58;;;;;;;13.10;12.70;;;;;;;-141.02;100.00;107971.50;5134960;27;20185;-62
2023/06/15 08:59:26;;;;;;;12.88;12.48;;;;;;;-141.02;100.00;107971.50;5135271;27;20266;-58
2023/06/15 09:01:55;;;;;;;13.40;12.90;;;;;;;-141.02;100.00;107971.50;5135281;27;20627;-60
2023/06/15 09:04:22;;;;;;;13.25;12.85;;;;;;;-141.02;100.00;107971.50;5135331;27;20188;-60
2023/06/15 09:06:51;;;;;;;12.77;12.38;;;;;;;-141.02;100.00;107971.50;5134893;27;20192;-58
2023/06/15 09:09:18;;;;;;;12.30;11.90;;;;;;;-141.02;100.00;107971.50;5134836;27;20232;-59
2023/06/15 09:11:45;;;;;;;11.90;11.50;;;;;;;-141.02;100.00;107971.50;5134792;27;20287;-63
2023/06/15 09:14:14;;;;;;;11.90;11.50;;;;;;;-141.02;100.00;107971.50;5135098;27;20199;-63
2023/06/15 09:16:42;;;;;;;12.20;11.80;;;;;;;-141.02;100.00;107971.50;5135060;27;20224;-59
2023/06/15 09:19:11;;;;;;;12.40;12.00;;;;;;;-141.02;100.00;107971.50;5135028;27;20273;-58
2023/06/15 09:21:43;;;;;;;11.52;11.13;;;;;;;-141.02;100.00;107971.50;5134906;27;20554;-59
2023/06/15 09:24:12;;;;;;;11.93;11.52;;;;;;;-141.02;100.00;107971.50;5134911;27;20185;-60
2023/06/15 09:26:40;;;;;;;11.85;11.45;;;;;;;-141.02;100.00;107971.50;5134490;27;20233;-58
2023/06/15 09:29:11;;;;;;;11.63;11.23;;;;;;;-141.02;100.00;107971.50;5134839;27;20279;-59
2023/06/15 09:31:41;;;;;;;11.10;10.80;;;;;;;-141.02;100.00;107971.50;5134933;27;20189;-61
2023/06/15 09:34:09;;;;;;;10.20;9.90;;;;;;;-141.02;100.00;107971.50;5134650;27;20577;-60
2023/06/15 09:36:38;;;;;;;8.95;8.75;;;;;;;-141.02;100.00;107971.50;5134287;27;20200;-70
2023/06/15 09:39:08;;;;;;;7.78;7.57;;;;;;;-141.02;100.00;107971.50;5134544;27;20253;-63
2023/06/15 09:41:35;;;;;;;7.70;7.50;;;;;;;-141.02;100.00;107971.50;5133603;27;20197;-62
2023/06/15 09:44:04;;;;;;;7.30;7.10;;;;;;;-141.02;100.00;107971.50;5134449;27;20192;-63
2023/06/15 09:46:31;;;;;;;6.60;6.40;;;;;;;-141.02;100.00;107971.50;5134375;27;20292;-64
2023/06/15 09:49:00;;;;;;;5.90;5.80;;;;;;;-141.02;100.00;107971.50;5134360;27;20235;-64
2023/06/15 09:51:33;;;;;;;5.35;5.25;;;;;;;-141.02;100.00;107971.50;5134304;27;20224;-66
2023/06/15 09:54:04;;;;;;;5.90;5.80;;;;;;;-141.02;100.00;107971.50;5133885;27;20275;-67
2023/06/15 09:56:31;;;;;;;7.20;7.00;;;;;;;-141.02;100.00;107971.50;5133956;27;20192;-67
2023/06/15 09:59:02;;;;;;;7.60;7.40;;;;;;;-141.02;100.00;107971.50;5134045;27;20699;-67
2023/06/15 10:01:33;;;;;;;7.60;7.40;;;;;;;-141.02;100.00;107971.50;5133874;27;20220;-66
2023/06/15 10:04:04;;;;;;;14.10;13.70;;;;;;;-141.02;100.00;107971.50;5134097;27;20192;-65
2023/06/15 10:06:34;;;;;;;9.20;8.90;;;;;;;-141.02;100.00;107971.50;5134072;27;20192;-67
2023/06/15 10:09:04;;;;;;;11.60;11.30;;;;;;;-141.02;100.00;107971.50;5133439;27;20605;-65
2023/06/15 10:11:32;;;;;;;8.90;8.70;;;;;;;-141.02;100.00;107971.50;5134336;27;20192;-66
2023/06/15 10:14:07;;;;;;;7.85;7.65;;;;;;;-141.02;100.00;107971.50;5133665;27;20283;-65
2023/06/15 10:16:35;;;;;;;8.50;8.30;;;;;;;-141.02;100.00;107971.50;5133663;27;20641;-65
2023/06/15 10:19:06;;;;;;;8.18;7.97;;;;;;;-141.02;100.00;107971.50;5133731;27;20196;-65
2023/06/15 10:21:36;;;;;;;12.18;11.88;;;;;;;-141.02;100.00;107971.50;5133602;27;20220;-64
2023/06/15 10:24:09;;;;;;;12.60;12.30;;;;;;;-141.02;100.00;107971.50;5134074;27;20207;-65
2023/06/15 10:26:37;;;;;;;11.90;11.60;;;;;;;-141.02;100.00;107971.50;5133734;27;20601;-68
2023/06/15 10:29:18;;;;;;;12.10;11.80;;;;;;;-141.02;100.00;107971.50;5133432;27;20228;-66
2023/06/15 10:31:50;;;;;;;12.52;12.15;;;;;;;-141.02;100.00;107971.50;5133437;27;20185;-66
2023/06/15 10:34:26;;;;;;;7.65;7.45;;;;;;;-141.02;100.00;107971.50;5133324;27;20220;-67
2023/06/15 10:37:02;;;;;;;8.00;7.80;;;;;;;-141.02;100.00;107971.50;5133593;27;20184;-67
2023/06/15 10:39:36;;;;;;;11.70;11.40;;;;;;;-141.02;100.00;107971.50;5133436;27;20216;-67
2023/06/15 10:42:08;;;;;;;15.27;14.77;;;;;;;-141.02;100.00;107971.50;5133511;27;20180;-69
2023/06/15 10:44:36;;;;;;;15.55;15.05;;;;;;;-141.02;100.00;107971.50;5133152;27;20272;-68
2023/06/15 10:47:06;;;;;;;16.90;16.30;;;;;;;-141.02;100.00;107971.50;5133462;27;20646;-67
2023/06/15 10:49:35;;;;;;;15.63;15.13;;;;;;;-141.02;100.00;107971.50;5133222;27;20204;-66
2023/06/15 10:52:03;;;;;;;10.25;9.95;;;;;;;-141.02;100.00;107971.50;5132846;27;20203;-69
2023/06/15 10:54:31;;;;;;;10.48;10.18;;;;;;;-141.02;100.00;107971.50;5133303;27;20193;-66
2023/06/15 10:56:58;;;;;;;12.10;11.70;;;;;;;-141.02;100.00;107971.50;5132998;27;20220;-66
2023/06/15 10:59:39;;;;;;;25.73;24.17;;;;;;;-141.02;100.00;107971.50;5132971;28;20192;-66
2023/06/15 11:02:43;;;;;;;20.55;19.75;;;;;;;-141.02;100.00;107971.50;5132964;28;20200;-67
2023/06/15 11:05:14;;;;;;;25.55;24.45;;;;;;;-141.02;100.00;107971.50;5133216;27;20260;-66
2023/06/15 11:07:43;;;;;;;25.40;24.30;;;;;;;-141.02;100.00;107971.50;5133132;27;20200;-65
2023/06/15 11:10:15;;;;;;;17.63;16.92;;;;;;;-141.02;100.00;107971.50;5132891;28;20188;-64
2023/06/15 11:12:44;;;;;;;22.00;20.90;;;;;;;-141.02;100.00;107971.50;5133140;27;20193;-63
2023/06/15 11:15:13;;;;;;;22.70;21.70;;;;;;;-141.02;100.00;107971.50;5132766;27;20207;-62
2023/06/15 11:17:58;;;;;;;27.77;26.58;;;;;;;-141.02;100.00;107971.50;5132862;28;20232;-62
2023/06/15 11:20:59;;;;;;;69.20;65.10;;;;;;;-141.02;100.00;107971.50;5133024;28;20220;-65
2023/06/15 11:23:32;;;;;;;43.70;41.30;;;;;;;-141.02;100.00;107971.50;5133068;27;20270;-66